^^
MeteoGriva-Weather Station Historical Data
Daily Summary for October 24, 2020 Units:  Metric    English   Both
Daily Weekly Monthly Yearly Custom
  High: Low: Average:
Temperature: 23.6 °C 15.3 °C 18.7 °C
Dew Point: 16.1 °C 9.8 °C 12.5 °C
Humidity: 78% 56.9% 68%
Wind Speed: 1.8km/h 0km/h 0km/h
Wind Gust: 12.2km/h - -
Wind- - SE
Pressure: 1016.9 hPa 1010.8 hPa -
Precipitation: 0.0 mm    
Historical Graphs
 
 
Tabular Data for October 24, 2020
Time Temperature Dew Point Pressure Wind Wind Speed Wind Gust Humidity Rainfall Rate (Hourly) solar
00:04 16.6 °C 10.9 °C 1016.9 hPa Calm     69.2% 0.0 mm 0 W/m2
00:09 16.6 °C 11 °C 1016.9 hPa Calm     69.4% 0.0 mm 0 W/m2
00:14 16.7 °C 11.1 °C 1016.9 hPa Calm     69.3% 0.0 mm 0 W/m2
00:19 16.8 °C 11.2 °C 1016.9 hPa Calm     69.7% 0.0 mm 0 W/m2
00:24 16.8 °C 11.2 °C 1016.9 hPa Calm     69.3% 0.0 mm 0 W/m2
00:29 16.8 °C 11.1 °C 1016.9 hPa Calm     69.2% 0.0 mm 0 W/m2
00:34 16.7 °C 11.2 °C 1016.6 hPa Calm     70% 0.0 mm 0 W/m2
00:39 16.6 °C 11.1 °C 1016.6 hPa Calm     70% 0.0 mm 0 W/m2
00:44 16.5 °C 11 °C 1016.6 hPa Calm     70% 0.0 mm 0 W/m2
00:49 16.6 °C 11 °C 1016.6 hPa Calm     69.7% 0.0 mm 0 W/m2
00:54 16.7 °C 11.2 °C 1016.6 hPa Calm     70% 0.0 mm 0 W/m2
00:59 16.7 °C 11.4 °C 1016.6 hPa Calm     70.8% 0.0 mm 0 W/m2
01:04 16.6 °C 11.3 °C 1016.6 hPa Calm     71.1% 0.0 mm 0 W/m2
01:09 16.5 °C 11.2 °C 1016.6 hPa Calm     71% 0.0 mm 0 W/m2
01:14 16.5 °C 11.2 °C 1016.6 hPa Calm     71% 0.0 mm 0 W/m2
01:19 16.4 °C 10.9 °C 1016.3 hPa Calm     69.9% 0.0 mm 0 W/m2
01:24 16.5 °C 10.8 °C 1016.3 hPa Calm     69% 0.0 mm 0 W/m2
01:29 16.5 °C 10.8 °C 1016.3 hPa Calm     69% 0.0 mm 0 W/m2
01:34 16.5 °C 10.8 °C 1016.3 hPa Calm     69.3% 0.0 mm 0 W/m2
01:39 16.3 °C 10.8 °C 1016.3 hPa Calm     70.1% 0.0 mm 0 W/m2
01:44 16.3 °C 11.1 °C 1016.3 hPa Calm     71.3% 0.0 mm 0 W/m2
01:49 16.3 °C 11.1 °C 1016.3 hPa Calm     71.3% 0.0 mm 0 W/m2
01:54 16.1 °C 11.1 °C 1016.3 hPa Calm     72.1% 0.0 mm 0 W/m2
01:59 16 °C 11 °C 1016.3 hPa Calm     72% 0.0 mm 0 W/m2
02:04 16 °C 10.8 °C 1016.3 hPa Calm     71.4% 0.0 mm 0 W/m2
02:09 16 °C 10.8 °C 1016.3 hPa Calm     71.3% 0.0 mm 0 W/m2
02:14 16 °C 10.8 °C 1016.3 hPa Calm     71.2% 0.0 mm 0 W/m2
02:19 15.9 °C 10.9 °C 1015.9 hPa Calm     71.9% 0.0 mm 0 W/m2
02:24 15.9 °C 10.8 °C 1015.9 hPa Calm     71.8% 0.0 mm 0 W/m2
02:29 15.9 °C 10.8 °C 1016.3 hPa Calm     71.7% 0.0 mm 0 W/m2
02:34 15.9 °C 10.5 °C 1016.3 hPa Calm     70.3% 0.0 mm 0 W/m2
02:39 15.9 °C 10.6 °C 1016.3 hPa Calm     70.8% 0.0 mm 0 W/m2
02:44 15.9 °C 10.5 °C 1015.9 hPa Calm     70.7% 0.0 mm 0 W/m2
02:49 15.9 °C 10.5 °C 1015.9 hPa Calm     70.4% 0.0 mm 0 W/m2
02:54 16 °C 10.3 °C 1015.9 hPa Calm     68.8% 0.0 mm 0 W/m2
02:59 16.4 °C 10.8 °C 1015.9 hPa Calm     69.1% 0.0 mm 0 W/m2
03:04 16.4 °C 10.7 °C 1015.9 hPa Calm     68.7% 0.0 mm 0 W/m2
03:09 16.3 °C 10.7 °C 1015.9 hPa Calm     69.4% 0.0 mm 0 W/m2
03:14 16.2 °C 10.6 °C 1015.9 hPa Calm     69.7% 0.0 mm 0 W/m2
03:19 16 °C 10.3 °C 1015.9 hPa Calm     69% 0.0 mm 0 W/m2
03:24 16 °C 10.3 °C 1015.9 hPa Calm     69% 0.0 mm 0 W/m2
03:29 16 °C 10.5 °C 1015.9 hPa Calm     70.2% 0.0 mm 0 W/m2
03:34 16 °C 10.3 °C 1015.9 hPa Calm     69.2% 0.0 mm 0 W/m2
03:39 16.2 °C 10.5 °C 1015.9 hPa Calm     69.1% 0.0 mm 0 W/m2
03:44 16.1 °C 10.3 °C 1015.6 hPa Calm     68.7% 0.0 mm 0 W/m2
03:49 16.1 °C 10.4 °C 1015.9 hPa Calm     69% 0.0 mm 0 W/m2
03:54 16 °C 10.6 °C 1015.9 hPa Calm     70.3% 0.0 mm 0 W/m2
03:59 15.6 °C 10.2 °C 1015.6 hPa Calm     70.2% 0.0 mm 0 W/m2
04:04 15.6 °C 10.1 °C 1015.6 hPa Calm     69.9% 0.0 mm 0 W/m2
04:09 15.7 °C 10 °C 1015.6 hPa Calm     69.2% 0.0 mm 0 W/m2
04:14 15.7 °C 10.2 °C 1015.6 hPa Calm     69.9% 0.0 mm 0 W/m2
04:19 15.6 °C 10.1 °C 1015.2 hPa Calm     70.1% 0.0 mm 0 W/m2
04:24 15.7 °C 10 °C 1015.2 hPa Calm     69.3% 0.0 mm 0 W/m2
04:29 15.7 °C 10.2 °C 1015.2 hPa Calm     69.9% 0.0 mm 0 W/m2
04:34 15.7 °C 10.2 °C 1015.2 hPa Calm     69.9% 0.0 mm 0 W/m2
04:39 15.6 °C 10.3 °C 1015.2 hPa Calm     70.6% 0.0 mm 0 W/m2
04:44 15.6 °C 10.4 °C 1015.2 hPa Calm     70.9% 0.0 mm 0 W/m2
04:49 15.6 °C 10.3 °C 1015.2 hPa Calm     70.5% 0.0 mm 0 W/m2
04:54 15.6 °C 10.2 °C 1014.9 hPa Calm     70.2% 0.0 mm 0 W/m2
04:59 15.6 °C 10.1 °C 1015.2 hPa Calm     70% 0.0 mm 0 W/m2
05:04 15.7 °C 10 °C 1014.9 hPa Calm     69.1% 0.0 mm 0 W/m2
05:09 15.7 °C 10 °C 1015.2 hPa Calm     69% 0.0 mm 0 W/m2
05:14 15.7 °C 10 °C 1014.9 hPa Calm     69% 0.0 mm 0 W/m2
05:19 15.8 °C 10.1 °C 1014.9 hPa Calm     69.1% 0.0 mm 0 W/m2
05:24 15.8 °C 10.3 °C 1014.9 hPa Calm     70% 0.0 mm 0 W/m2
05:29 15.8 °C 10.2 °C 1014.9 hPa Calm     69.7% 0.0 mm 0 W/m2
05:34 15.7 °C 9.9 °C 1014.9 hPa Calm     68.6% 0.0 mm 0 W/m2
05:39 16.1 °C 10.3 °C 1015.2 hPa Calm     68.2% 0.0 mm 0 W/m2
05:44 16.1 °C 10.3 °C 1015.2 hPa Calm     68.6% 0.0 mm 0 W/m2
05:49 16 °C 10.3 °C 1015.2 hPa Calm     69.2% 0.0 mm 0 W/m2
05:54 15.8 °C 10.3 °C 1015.2 hPa Calm     70% 0.0 mm 0 W/m2
05:59 15.3 °C 10 °C 1015.2 hPa Calm     70.1% 0.0 mm 0 W/m2
06:04 15.4 °C 10 °C 1015.2 hPa Calm     70.1% 0.0 mm 0 W/m2
06:09 15.4 °C 10 °C 1015.2 hPa Calm     70% 0.0 mm 0 W/m2
06:14 15.4 °C 9.9 °C 1014.9 hPa Calm     69.8% 0.0 mm 0 W/m2
06:19 15.6 °C 10 °C 1015.2 hPa Calm     69.2% 0.0 mm 0 W/m2
06:24 15.6 °C 10.3 °C 1015.2 hPa Calm     70.8% 0.0 mm 0 W/m2
06:29 15.5 °C 10.1 °C 1015.2 hPa Calm     70.1% 0.0 mm 0 W/m2
06:34 15.5 °C 9.9 °C 1015.2 hPa Calm     69.4% 0.0 mm 0 W/m2
06:39 15.8 °C 10.1 °C 1015.2 hPa Calm     69% 0.0 mm 0 W/m2
06:44 15.8 °C 10 °C 1014.9 hPa Calm     68.7% 0.0 mm 0 W/m2
06:49 15.7 °C 10 °C 1014.9 hPa Calm     68.9% 0.0 mm 0 W/m2
06:54 15.7 °C 9.9 °C 1014.9 hPa Calm     68.3% 0.0 mm 0 W/m2
06:59 15.9 °C 10 °C 1014.9 hPa Calm     68.1% 0.0 mm 0 W/m2
07:04 15.9 °C 10.1 °C 1014.9 hPa Calm     68.3% 0.0 mm 0 W/m2
07:09 15.9 °C 10 °C 1014.9 hPa Calm     68.3% 0.0 mm 0 W/m2
07:14 15.8 °C 10 °C 1014.9 hPa Calm     68.3% 0.0 mm 0 W/m2
07:19 15.9 °C 10 °C 1014.9 hPa Calm     68% 0.0 mm 0 W/m2
07:24 15.9 °C 10 °C 1014.9 hPa Calm     68% 0.0 mm 0 W/m2
07:29 15.9 °C 10 °C 1014.9 hPa Calm     67.9% 0.0 mm 0 W/m2
07:34 15.9 °C 9.8 °C 1014.6 hPa Calm     66.9% 0.0 mm 0 W/m2
07:39 16.2 °C 10.1 °C 1014.6 hPa Calm     67.1% 0.0 mm 0 W/m2
07:44 16.3 °C 10.2 °C 1014.6 hPa Calm     67% 0.0 mm 0 W/m2
07:49 16.3 °C 10.2 °C 1014.6 hPa Calm     67% 0.0 mm 4 W/m2
07:54 16.3 °C 10 °C 1014.6 hPa Calm     66.3% 0.0 mm 7 W/m2
07:59 16.3 °C 10 °C 1014.6 hPa Calm     66.4% 0.0 mm 12 W/m2
08:04 16.3 °C 9.9 °C 1014.6 hPa Calm     66% 0.0 mm 19 W/m2
08:09 16.4 °C 10 °C 1014.9 hPa Calm     66.2% 0.0 mm 26 W/m2
08:14 16.5 °C 10.3 °C 1014.6 hPa Calm     66.6% 0.0 mm 33 W/m2
08:19 17.1 °C 10.6 °C 1014.6 hPa Calm     65.6% 0.0 mm 40 W/m2
08:24 17.2 °C 10.7 °C 1014.6 hPa Calm     65.4% 0.0 mm 47 W/m2
08:29 17.3 °C 10.8 °C 1014.6 hPa Calm     65.2% 0.0 mm 52 W/m2
08:34 17.4 °C 10.8 °C 1014.9 hPa Calm     65% 0.0 mm 58 W/m2
08:39 18.4 °C 11.3 °C 1014.9 hPa Calm     63.6% 0.0 mm 66 W/m2
08:44 18.7 °C 11.7 °C 1014.9 hPa Calm     63.9% 0.0 mm 76 W/m2
08:49 18.8 °C 11.3 °C 1015.2 hPa Calm     61.4% 0.0 mm 74 W/m2
08:54 19 °C 11.6 °C 1015.2 hPa Calm     61.9% 0.0 mm 77 W/m2
08:59 19.4 °C 11.6 °C 1014.9 hPa Calm     60.8% 0.0 mm 121 W/m2
09:04 19.6 °C 11.1 °C 1014.9 hPa Calm     57.9% 0.0 mm 118 W/m2
09:09 19.8 °C 11.4 °C 1014.9 hPa Calm     58.2% 0.0 mm 86 W/m2
09:14 20 °C 11.4 °C 1015.2 hPa Calm     57.4% 0.0 mm 85 W/m2
09:19 20 °C 11.9 °C 1015.2 hPa Calm     59.8% 0.0 mm 93 W/m2
09:24 19.9 °C 11.9 °C 1015.2 hPa Calm     60% 0.0 mm 100 W/m2
09:29 20 °C 11.6 °C 1015.2 hPa Calm     58.1% 0.0 mm 105 W/m2
09:34 20.3 °C 12 °C 1015.2 hPa Calm     59% 0.0 mm 103 W/m2
09:39 21 °C 13.2 °C 1015.2 hPa Calm     61% 0.0 mm 106 W/m2
09:44 21.3 °C 13.5 °C 1015.2 hPa Calm     61% 0.0 mm 104 W/m2
09:49 21.4 °C 13.4 °C 1015.2 hPa Calm     60.6% 0.0 mm 99 W/m2
09:54 21.3 °C 14 °C 1015.2 hPa Calm     62.8% 0.0 mm 107 W/m2
09:59 21.1 °C 13.5 °C 1015.2 hPa Calm     61.7% 0.0 mm 107 W/m2
10:04 21 °C 13.4 °C 1015.2 hPa Calm     61.7% 0.0 mm 112 W/m2
10:09 21.1 °C 13.5 °C 1015.2 hPa Calm     61.7% 0.0 mm 112 W/m2
10:14 21.3 °C 13.7 °C 1015.2 hPa Calm     61.8% 0.0 mm 112 W/m2
10:19 21.1 °C 13.5 °C 1015.2 hPa Calm     61.8% 0.0 mm 107 W/m2
10:24 20.9 °C 13.1 °C 1014.9 hPa Calm     61.2% 0.0 mm 110 W/m2
10:29 20.8 °C 13 °C 1014.9 hPa Calm     61% 0.0 mm 112 W/m2
10:34 20.7 °C 12.7 °C 1014.9 hPa Calm     60% 0.0 mm 115 W/m2
10:39 20.9 °C 12.9 °C 1014.9 hPa Calm     60% 0.0 mm 122 W/m2
10:44 21.3 °C 12.9 °C 1014.9 hPa Calm     58.7% 0.0 mm 125 W/m2
10:49 21.5 °C 12.6 °C 1014.9 hPa Calm     56.9% 0.0 mm 134 W/m2
10:54 21.7 °C 13.4 °C 1014.9 hPa Calm     59% 0.0 mm 137 W/m2
10:59 22.1 °C 14 °C 1014.9 hPa SSE 0.1 km/h 4 km/h 60% 0.0 mm 143 W/m2
11:04 22.4 °C 14.5 °C 1014.9 hPa Calm     60.9% 0.0 mm 150 W/m2
11:09 22.4 °C 14.5 °C 1014.6 hPa Calm   4 km/h 60.9% 0.0 mm 154 W/m2
11:14 22.4 °C 14.1 °C 1014.6 hPa South 0.2 km/h 4 km/h 59.5% 0.0 mm 156 W/m2
11:19 22.3 °C 14.3 °C 1014.6 hPa SE 0.5 km/h 7.9 km/h 60.6% 0.0 mm 156 W/m2
11:24 22 °C 14.4 °C 1014.9 hPa SE 0.3 km/h 7.9 km/h 62% 0.0 mm 173 W/m2
11:29 22 °C 14.4 °C 1014.6 hPa Calm     61.9% 0.0 mm 186 W/m2
11:34 22 °C 14.4 °C 1014.6 hPa Calm   4 km/h 62% 0.0 mm 197 W/m2
11:39 21.9 °C 14.3 °C 1014.6 hPa Calm   4 km/h 62% 0.0 mm 197 W/m2
11:44 21.8 °C 14.4 °C 1014.6 hPa SSE 0.3 km/h 4 km/h 63.1% 0.0 mm 203 W/m2
11:49 21.8 °C 14.5 °C 1014.6 hPa SE 0.3 km/h 7.9 km/h 63.4% 0.0 mm 204 W/m2
11:54 21.7 °C 14.4 °C 1014.6 hPa Calm     63.2% 0.0 mm 209 W/m2
11:59 21.9 °C 14.4 °C 1014.6 hPa Calm     62.8% 0.0 mm 226 W/m2
12:04 22.2 °C 14.6 °C 1014.6 hPa Calm     62.2% 0.0 mm 231 W/m2
12:09 22.1 °C 15 °C 1014.2 hPa Calm     64.1% 0.0 mm 235 W/m2
12:14 21.9 °C 15.3 °C 1014.2 hPa South 0.1 km/h 4 km/h 66% 0.0 mm 244 W/m2
12:19 22.1 °C 15.1 °C 1014.6 hPa Calm   4 km/h 64.6% 0.0 mm 272 W/m2
12:24 22.5 °C 15.2 °C 1014.2 hPa ESE 0.3 km/h 4 km/h 63.3% 0.0 mm 279 W/m2
12:29 22.5 °C 15.2 °C 1013.9 hPa SE 0.2 km/h 4 km/h 63.7% 0.0 mm 279 W/m2
12:34 22.4 °C 15.4 °C 1013.9 hPa SE 0.6 km/h 4 km/h 64.6% 0.0 mm 259 W/m2
12:39 22.1 °C 15.2 °C 1013.9 hPa South 0.3 km/h 4 km/h 65.2% 0.0 mm 236 W/m2
12:44 21.7 °C 14.9 °C 1013.9 hPa Calm   4 km/h 65.2% 0.0 mm 223 W/m2
12:49 21.7 °C 15 °C 1013.5 hPa SSE 0.2 km/h 4 km/h 65.8% 0.0 mm 201 W/m2
12:54 21.7 °C 15.4 °C 1013.5 hPa Calm     67.7% 0.0 mm 198 W/m2
12:59 21.1 °C 15.4 °C 1013.5 hPa Calm     69.9% 0.0 mm 215 W/m2
13:04 20.4 °C 14.7 °C 1013.9 hPa Calm     70.1% 0.0 mm 293 W/m2
13:09 20.4 °C 14.4 °C 1013.5 hPa Calm     68.4% 0.0 mm 296 W/m2
13:14 20.6 °C 14.2 °C 1013.5 hPa Calm     66.4% 0.0 mm 325 W/m2
13:19 21 °C 14.5 °C 1013.5 hPa Calm     66.4% 0.0 mm 360 W/m2
13:24 21.6 °C 15.2 °C 1013.5 hPa Calm     67.2% 0.0 mm 395 W/m2
13:29 21.7 °C 15.3 °C 1013.2 hPa NE 0.9 km/h 4 km/h 66.9% 0.0 mm 361 W/m2
13:34 21.7 °C 15.5 °C 1012.9 hPa NNE 0.2 km/h 4 km/h 68.3% 0.0 mm 422 W/m2
13:39 21.7 °C 15.5 °C 1012.9 hPa Calm   4 km/h 68.1% 0.0 mm 435 W/m2
13:44 21.6 °C 15 °C 1012.9 hPa Calm     66.1% 0.0 mm 443 W/m2
13:49 21.8 °C 15 °C 1012.9 hPa Calm     65.2% 0.0 mm 429 W/m2
13:54 21.9 °C 15.4 °C 1012.5 hPa Calm     66.3% 0.0 mm 399 W/m2
13:59 22 °C 15.5 °C 1012.5 hPa Calm     66.7% 0.0 mm 434 W/m2
14:04 21.7 °C 15.2 °C 1012.5 hPa Calm   4 km/h 66.3% 0.0 mm 441 W/m2
14:09 21.7 °C 15.2 °C 1012.5 hPa Calm     66.3% 0.0 mm 448 W/m2
14:14 21.8 °C 15.1 °C 1012.2 hPa Calm     65.6% 0.0 mm 465 W/m2
14:19 22.2 °C 15 °C 1011.9 hPa South 0.1 km/h 4 km/h 63.5% 0.0 mm 414 W/m2
14:24 23.5 °C 16.1 °C 1011.9 hPa South 0.3 km/h 4 km/h 63.1% 0.0 mm 300 W/m2
14:29 23.5 °C 16.1 °C 1011.9 hPa SSE 1.1 km/h 7.9 km/h 63.3% 0.0 mm 417 W/m2
14:34 23.5 °C 15.9 °C 1011.9 hPa Calm     62.6% 0.0 mm 452 W/m2
14:39 23.6 °C 15.9 °C 1011.9 hPa SE 0.7 km/h 7.9 km/h 62% 0.0 mm 431 W/m2
14:44 23.6 °C 16 °C 1011.9 hPa SE 1.8 km/h 7.9 km/h 62.4% 0.0 mm 429 W/m2
14:49 23.5 °C 16 °C 1011.9 hPa SE 0.7 km/h 7.9 km/h 62.8% 0.0 mm 428 W/m2
14:54 23.5 °C 16 °C 1011.9 hPa East 0.4 km/h 7.9 km/h 63.1% 0.0 mm 427 W/m2
14:59 23.3 °C 15.9 °C 1011.5 hPa South 0.8 km/h 12.2 km/h 63.1% 0.0 mm 412 W/m2
15:04 23.5 °C 15.8 °C 1011.5 hPa ENE 0.3 km/h 12.2 km/h 62% 0.0 mm 424 W/m2
15:09 23.5 °C 15.7 °C 1011.5 hPa Calm   4 km/h 61.8% 0.0 mm 426 W/m2
15:14 23.5 °C 15.4 °C 1011.5 hPa SSE 0.3 km/h 4 km/h 60.6% 0.0 mm 379 W/m2
15:19 23.6 °C 15.5 °C 1011.5 hPa SSE 0.8 km/h 7.9 km/h 60.7% 0.0 mm 324 W/m2
15:24 23.5 °C 15.5 °C 1011.2 hPa East 0.4 km/h 4 km/h 61.1% 0.0 mm 321 W/m2
15:29 23.5 °C 15.7 °C 1011.2 hPa South 0.3 km/h 4 km/h 61.7% 0.0 mm 240 W/m2
15:34 23.4 °C 15.6 °C 1011.2 hPa SE 0.6 km/h 7.9 km/h 61.8% 0.0 mm 323 W/m2
15:39 23.3 °C 15.5 °C 1011.5 hPa Calm   4 km/h 61.9% 0.0 mm 298 W/m2
15:44 22.8 °C 15.1 °C 1011.2 hPa Calm   7.9 km/h 62.3% 0.0 mm 260 W/m2
15:49 22.7 °C 15 °C 1011.2 hPa SE 0.3 km/h 7.9 km/h 62.1% 0.0 mm 171 W/m2
15:54 22.7 °C 15.3 °C 1011.2 hPa Calm   4 km/h 63% 0.0 mm 146 W/m2
15:59 22.6 °C 15.2 °C 1011.5 hPa Calm   4 km/h 63% 0.0 mm 166 W/m2
16:04 22.3 °C 14.9 °C 1011.5 hPa Calm     62.7% 0.0 mm 168 W/m2
16:09 22.3 °C 14.8 °C 1011.5 hPa Calm     62.2% 0.0 mm 173 W/m2
16:14 22.3 °C 14.8 °C 1011.2 hPa ESE 0.5 km/h 7.9 km/h 62.3% 0.0 mm 206 W/m2
16:19 22.4 °C 14.9 °C 1011.2 hPa Calm     62.7% 0.0 mm 191 W/m2
16:24 22.3 °C 14.8 °C 1011.2 hPa Calm     62.3% 0.0 mm 148 W/m2
16:29 22.3 °C 14.8 °C 1011.2 hPa Calm     62.4% 0.0 mm 130 W/m2
16:34 22.3 °C 14.7 °C 1011.2 hPa Calm     62% 0.0 mm 126 W/m2
16:39 22.3 °C 14.8 °C 1011.5 hPa Calm     62.4% 0.0 mm 123 W/m2
16:44 21.9 °C 14.5 °C 1011.2 hPa Calm     62.8% 0.0 mm 118 W/m2
16:49 21.9 °C 14.5 °C 1011.2 hPa Calm     62.8% 0.0 mm 113 W/m2
16:54 21.9 °C 14.9 °C 1011.2 hPa Calm     64.5% 0.0 mm 105 W/m2
16:59 21.8 °C 15.3 °C 1011.2 hPa Calm     66.4% 0.0 mm 101 W/m2
17:04 21.6 °C 15.2 °C 1010.8 hPa Calm     66.9% 0.0 mm 97 W/m2
17:09 21.6 °C 15.1 °C 1010.8 hPa Calm     66.3% 0.0 mm 94 W/m2
17:14 21.6 °C 14.7 °C 1010.8 hPa Calm     65% 0.0 mm 91 W/m2
17:19 21.5 °C 14.7 °C 1010.8 hPa Calm     65.2% 0.0 mm 88 W/m2
17:24 21.3 °C 14.9 °C 1010.8 hPa Calm     66.9% 0.0 mm 86 W/m2
17:29 21.3 °C 15.2 °C 1010.8 hPa Calm     67.9% 0.0 mm 83 W/m2
17:34 21.3 °C 15.3 °C 1011.2 hPa Calm     68.8% 0.0 mm 77 W/m2
17:39 21.2 °C 15.6 °C 1011.2 hPa Calm     70.6% 0.0 mm 68 W/m2
17:44 20.4 °C 15.2 °C 1011.2 hPa Calm     71.8% 0.0 mm 60 W/m2
17:49 20.2 °C 15 °C 1010.8 hPa Calm     72% 0.0 mm 51 W/m2
17:54 20.2 °C 15.4 °C 1010.8 hPa Calm     74% 0.0 mm 44 W/m2
17:59 20.1 °C 15.5 °C 1010.8 hPa Calm     75% 0.0 mm 39 W/m2
18:04 19.6 °C 15.2 °C 1011.2 hPa Calm     75.7% 0.0 mm 33 W/m2
18:09 19.4 °C 14.9 °C 1011.2 hPa Calm     75% 0.0 mm 27 W/m2
18:14 19.4 °C 15 °C 1010.8 hPa Calm     75.7% 0.0 mm 21 W/m2
18:19 19.3 °C 15.1 °C 1010.8 hPa Calm     76.2% 0.0 mm 17 W/m2
18:24 18.9 °C 14.8 °C 1010.8 hPa Calm     76.7% 0.0 mm 10 W/m2
18:29 18.7 °C 14.8 °C 1010.8 hPa Calm     78% 0.0 mm 6 W/m2
18:34 18.7 °C 14.5 °C 1010.8 hPa Calm     76.6% 0.0 mm 3 W/m2
18:39 18.7 °C 14.4 °C 1010.8 hPa Calm     76.2% 0.0 mm 0 W/m2
18:44 18.7 °C 14.3 °C 1010.8 hPa Calm     75.3% 0.0 mm 0 W/m2
18:49 18.8 °C 14.1 °C 1010.8 hPa Calm     74.1% 0.0 mm 0 W/m2
18:54 18.8 °C 13.7 °C 1010.8 hPa Calm     72.4% 0.0 mm 0 W/m2
18:59 18.8 °C 13 °C 1010.8 hPa Calm     69% 0.0 mm 0 W/m2
19:04 19.1 °C 12.8 °C 1010.8 hPa Calm     67.1% 0.0 mm 0 W/m2
19:09 19.1 °C 12.7 °C 1010.8 hPa Calm     66.4% 0.0 mm 0 W/m2
19:14 19.1 °C 12.5 °C 1010.8 hPa Calm     65.8% 0.0 mm 0 W/m2
19:19 19 °C 12.4 °C 1011.2 hPa Calm     65.6% 0.0 mm 0 W/m2
19:24 19 °C 12.1 °C 1010.8 hPa Calm     64.5% 0.0 mm 0 W/m2
19:29 19 °C 12.1 °C 1011.2 hPa Calm     64.3% 0.0 mm 0 W/m2
19:34 18.9 °C 12.5 °C 1011.5 hPa Calm     66.3% 0.0 mm 0 W/m2
19:39 18.8 °C 12.6 °C 1011.5 hPa Calm     67% 0.0 mm 0 W/m2
19:44 18.6 °C 12.4 °C 1011.5 hPa Calm     67% 0.0 mm 0 W/m2
19:49 18.5 °C 12.3 °C 1011.5 hPa Calm     67% 0.0 mm 0 W/m2
19:54 18.5 °C 12.1 °C 1011.5 hPa Calm     66.4% 0.0 mm 0 W/m2
19:59 18.5 °C 12.2 °C 1011.5 hPa Calm     66.7% 0.0 mm 0 W/m2
20:04 18.6 °C 12.1 °C 1011.5 hPa Calm     66% 0.0 mm 0 W/m2
20:09 18.6 °C 12.1 °C 1011.5 hPa Calm     66% 0.0 mm 0 W/m2
20:14 18.6 °C 12.2 °C 1011.5 hPa Calm     66.4% 0.0 mm 0 W/m2
20:19 18.6 °C 12.3 °C 1011.5 hPa Calm     66.8% 0.0 mm 0 W/m2
20:24 18.2 °C 12.1 °C 1011.5 hPa Calm     67.3% 0.0 mm 0 W/m2
20:29 18 °C 11.8 °C 1011.2 hPa Calm     67% 0.0 mm 0 W/m2
20:34 18 °C 11.8 °C 1011.5 hPa Calm     67.1% 0.0 mm 0 W/m2
20:39 17.9 °C 11.9 °C 1011.5 hPa Calm     68% 0.0 mm 0 W/m2
20:44 17.5 °C 11.8 °C 1011.5 hPa Calm     69% 0.0 mm 0 W/m2
20:49 17.3 °C 11.4 °C 1011.5 hPa Calm     68.4% 0.0 mm 0 W/m2
20:54 17.3 °C 11.5 °C 1011.5 hPa Calm     68.6% 0.0 mm 0 W/m2
20:59 17.4 °C 11.7 °C 1011.5 hPa Calm     69% 0.0 mm 0 W/m2
21:04 17.3 °C 11.6 °C 1011.5 hPa Calm     69.1% 0.0 mm 0 W/m2
21:09 17.3 °C 11.8 °C 1011.5 hPa Calm     70.1% 0.0 mm 0 W/m2
21:14 17.3 °C 12 °C 1011.5 hPa Calm     71% 0.0 mm 0 W/m2
21:19 17.2 °C 12.1 °C 1011.5 hPa Calm     72% 0.0 mm 0 W/m2
21:24 16.9 °C 12 °C 1011.5 hPa Calm     73% 0.0 mm 0 W/m2
21:29 16.5 °C 11.8 °C 1011.5 hPa Calm     74% 0.0 mm 0 W/m2
21:34 16.5 °C 11.6 °C 1011.5 hPa Calm     73.3% 0.0 mm 0 W/m2
21:39 16.4 °C 11.5 °C 1011.5 hPa Calm     73% 0.0 mm 0 W/m2
21:44 16.4 °C 11.4 °C 1011.2 hPa Calm     72.4% 0.0 mm 0 W/m2
21:49 16.5 °C 11.4 °C 1011.5 hPa Calm     71.9% 0.0 mm 0 W/m2
21:54 16.5 °C 11.4 °C 1011.2 hPa Calm     72% 0.0 mm 0 W/m2
21:59 16.5 °C 11.4 °C 1011.5 hPa Calm     72.2% 0.0 mm 0 W/m2
22:04 16.6 °C 11.5 °C 1011.5 hPa Calm     72% 0.0 mm 0 W/m2
22:09 16.8 °C 11.7 °C 1011.5 hPa Calm     71.9% 0.0 mm 0 W/m2
22:14 16.7 °C 11.8 °C 1011.5 hPa Calm     72.8% 0.0 mm 0 W/m2
22:19 16.7 °C 11.6 °C 1011.5 hPa Calm     72.1% 0.0 mm 0 W/m2
22:24 16.6 °C 11.6 °C 1011.5 hPa Calm     72.4% 0.0 mm 0 W/m2
22:29 16.5 °C 11.6 °C 1011.9 hPa Calm     72.9% 0.0 mm 0 W/m2
22:34 16.5 °C 11.6 °C 1011.9 hPa Calm     72.9% 0.0 mm 0 W/m2
22:39 16.5 °C 11.7 °C 1011.9 hPa Calm     73.8% 0.0 mm 0 W/m2
22:44 16.8 °C 11.9 °C 1011.9 hPa Calm     72.9% 0.0 mm 0 W/m2
22:49 17.1 °C 11.9 °C 1011.9 hPa Calm     71.3% 0.0 mm 0 W/m2
22:54 17.1 °C 11.8 °C 1011.9 hPa Calm     71% 0.0 mm 0 W/m2
22:59 17.1 °C 11.8 °C 1011.9 hPa Calm     71.1% 0.0 mm 0 W/m2
23:04 17 °C 11.9 °C 1011.9 hPa SSW 0.2 km/h 4 km/h 72% 0.0 mm 0 W/m2
23:09 16.7 °C 11.6 °C 1011.9 hPa Calm   4 km/h 72% 0.0 mm 0 W/m2
23:14 16.7 °C 11.8 °C 1011.9 hPa Calm     73% 0.0 mm 0 W/m2
23:19 16.6 °C 12 °C 1011.9 hPa Calm     74.7% 0.0 mm 0 W/m2
23:24 16.4 °C 12.1 °C 1011.9 hPa Calm   4 km/h 75.7% 0.0 mm 0 W/m2
23:29 16.2 °C 11.8 °C 1011.9 hPa Calm     74.9% 0.0 mm 0 W/m2
23:34 16.2 °C 11.7 °C 1011.9 hPa Calm     74.3% 0.0 mm 0 W/m2
23:39 16.2 °C 11.4 °C 1011.9 hPa Calm     73% 0.0 mm 0 W/m2
23:44 16.4 °C 11.5 °C 1011.5 hPa Calm     72.9% 0.0 mm 0 W/m2
23:49 16.7 °C 11.6 °C 1011.9 hPa Calm     71.9% 0.0 mm 0 W/m2
23:54 16.7 °C 11.4 °C 1011.5 hPa Calm     71.3% 0.0 mm 0 W/m2
23:59 16.7 °C 11.7 °C 1011.9 hPa Calm     72.6% 0.0 mm 0 W/m2
Juneau County Weather
Compliments of Weather Underground - 2 mb